Molonglo, Australia

69.4°F / 20.8°C
Clear
Humidity: 44%
Dew Point: 47°F / 8°C
Wind: East at 0.0 mph / 0.0 km/h
Wind Gust: 1.1 mph / 1.8 km/h
Pressure: 30.09 in / 1019 hPa (Steady)
Visibility: -
Clouds:
Yesterday's Maximum: 86.7°F / 30.4°C
Yesterday's Minimum: 53.4°F / 11.9°C
UV: 0.0 out of 16
Sunrise:6:08 AM AEDT
Sunset:8:19 PM AEDT
Moon Rise:7:47 AM AEDT
Moon Set:9:38 PM AEDT
Moon Phase Waxing Crescent
NOAA Weather Radio
No local feed.
METAR YSCB 182300Z 28003KT CAVOK 26/02 Q1019 NOSIG
As of: 10:15 AM AEDT on January 19, 2018
Observed at: Madison Apartments, Narrabundah, Australia

View Station's History

No Yes

Local Satellite

Current Satellite Forecast
Region Default Local
No Yes

View Full Screen WunderMap

Forecast

Current Satellite Forecast
Thursday
. High: 86° F. / 30° C.

. High: 69° F. / 21° C.

Features

Weather Apps

WunderRadio

Weather Underground Apps
Check out our wide variety of mobile and setup applications.

Weather Underground Applications

Top of Page

© Copyright 2018
The Weather Company, LLC